Time;durP1;ratioP1;P1;durP2;ratioP2;P2;SDS_P1;SDS_P2;PMS_P1;PMS_P2;Temp;Humidity;BMP_temperature;BMP_pressure;BME280_temperature;BME280_humidity;BME280_pressure;Samples;Min_cycle;Max_cycle;Signal;HPM_P1;HPM_P2
2023/12/04 00:01:28;;;;;;;;;12.75;10.00;;;;;4.51;48.10;100310.84;5079631;28;45327;-84
2023/12/04 00:03:53;;;;;;;;;12.50;10.50;;;;;4.43;47.90;100293.56;5079106;28;45530;-81
2023/12/04 00:06:19;;;;;;;;;8.75;5.00;;;;;4.54;47.76;100300.19;5079189;28;45269;-82
2023/12/04 00:08:44;;;;;;;;;10.25;8.00;;;;;4.53;47.53;100295.84;5079024;28;45350;-85
2023/12/04 00:11:10;;;;;;;;;9.50;8.00;;;;;4.49;48.13;100279.28;5078820;27;45349;-83
2023/12/04 00:13:35;;;;;;;;;12.75;10.25;;;;;4.50;47.96;100274.88;5079419;28;45360;-85
2023/12/04 00:16:01;;;;;;;;;11.75;8.50;;;;;4.54;47.76;100266.81;5078758;28;45400;-84
2023/12/04 00:18:26;;;;;;;;;9.00;9.00;;;;;4.50;47.47;100251.19;5078948;28;45337;-85
2023/12/04 00:20:52;;;;;;;;;15.50;9.75;;;;;4.48;47.51;100245.97;5078927;28;45463;-84
2023/12/04 00:23:17;;;;;;;;;14.50;11.00;;;;;4.49;48.29;100252.09;5078850;28;45259;-83
2023/12/04 00:25:43;;;;;;;;;9.75;9.00;;;;;4.53;47.85;100249.28;5078792;28;46008;-87
2023/12/04 00:28:08;;;;;;;;;10.25;9.00;;;;;4.56;48.10;100243.06;5078649;27;45327;-83
2023/12/04 00:30:34;;;;;;;;;10.00;8.25;;;;;4.51;47.90;100240.59;5078323;28;45367;-85
2023/12/04 00:32:59;;;;;;;;;16.25;11.50;;;;;4.55;48.01;100236.91;5078640;28;47047;-85
2023/12/04 00:35:24;;;;;;;;;11.00;9.00;;;;;4.60;48.13;100234.13;5078426;27;52389;-85
2023/12/04 00:37:49;;;;;;;;;8.75;8.75;;;;;4.59;47.83;100238.56;5079811;28;49726;-86
2023/12/04 00:40:15;;;;;;;;;12.75;9.25;;;;;4.57;47.85;100231.63;5078754;28;45299;-84
2023/12/04 00:42:40;;;;;;;;;11.00;9.00;;;;;4.53;48.38;100212.44;5078918;28;45561;-84
2023/12/04 00:45:06;;;;;;;;;8.75;8.75;;;;;4.57;48.89;100224.59;5067870;28;47557;-85
2023/12/04 00:47:31;;;;;;;;;12.25;7.50;;;;;4.62;48.33;100227.88;5078692;28;45420;-85
2023/12/04 00:49:57;;;;;;;;;6.00;6.00;;;;;4.65;47.82;100217.22;5079097;27;45477;-83
2023/12/04 00:52:22;;;;;;;;;10.00;9.00;;;;;4.58;48.24;100210.50;5079580;27;45368;-86
2023/12/04 00:54:47;;;;;;;;;11.75;9.25;;;;;4.66;48.73;100191.75;5077987;27;60884;-84
2023/12/04 00:57:12;;;;;;;;;9.50;9.00;;;;;4.62;48.47;100191.03;5078107;28;54086;-85
2023/12/04 00:59:38;;;;;;;;;11.00;8.00;;;;;4.71;48.83;100190.69;5077532;28;45442;-84
2023/12/04 01:02:03;;;;;;;;;9.00;9.00;;;;;4.74;49.06;100180.00;5078466;28;45556;-84
2023/12/04 01:04:29;;;;;;;;;8.25;6.50;;;;;4.75;48.39;100172.97;5078337;28;45202;-84
2023/12/04 01:06:55;;;;;;;;;9.25;6.25;;;;;4.76;48.34;100160.66;5078629;28;45332;-83
2023/12/04 01:09:24;;;;;;;;;8.00;7.25;;;;;4.82;48.41;100176.22;5078305;27;45223;-82
2023/12/04 01:11:53;;;;;;;;;9.25;7.75;;;;;4.89;48.56;100175.06;5078611;27;45551;-84
2023/12/04 01:14:18;;;;;;;;;8.50;8.50;;;;;4.89;49.07;100170.66;5078115;27;46054;-84
2023/12/04 01:16:43;;;;;;;;;8.50;8.50;;;;;4.86;48.48;100151.47;5077837;28;45307;-82
2023/12/04 01:19:09;;;;;;;;;8.50;8.50;;;;;4.88;48.59;100147.00;5077952;27;45267;-83
2023/12/04 01:21:35;;;;;;;;;10.50;7.50;;;;;4.89;48.42;100135.53;5078151;27;45632;-86
2023/12/04 01:24:00;;;;;;;;;8.00;8.00;;;;;4.91;49.01;100134.56;5077951;28;45993;-87
2023/12/04 01:26:25;;;;;;;;;6.00;6.00;;;;;4.96;48.00;100126.47;5077789;28;56527;-82
2023/12/04 01:28:51;;;;;;;;;5.25;5.25;;;;;4.98;48.58;100119.38;5078292;28;47798;-86
2023/12/04 01:31:16;;;;;;;;;10.00;9.00;;;;;4.99;48.73;100110.53;5078412;28;45156;-84
2023/12/04 01:33:41;;;;;;;;;15.00;6.50;;;;;5.04;48.99;100113.84;5077870;27;46373;-84
2023/12/04 01:36:07;;;;;;;;;10.00;5.00;;;;;5.07;48.64;100113.69;5078326;28;52814;-86
2023/12/04 01:38:32;;;;;;;;;3.00;2.75;;;;;5.06;48.19;100101.44;5078729;27;45269;-84
2023/12/04 01:40:57;;;;;;;;;6.75;6.75;;;;;5.04;48.01;100109.41;5078934;28;45769;-81
2023/12/04 01:43:23;;;;;;;;;6.00;6.00;;;;;5.03;48.11;100107.72;5078487;28;45457;-85
2023/12/04 01:45:49;;;;;;;;;9.25;8.50;;;;;5.03;47.93;100101.56;5078784;28;45550;-84
2023/12/04 01:48:15;;;;;;;;;8.00;8.00;;;;;5.11;48.22;100117.94;5077298;28;45380;-83
2023/12/04 01:50:41;;;;;;;;;7.50;5.75;;;;;5.07;47.94;100103.16;5076209;28;45456;-80
2023/12/04 01:53:06;;;;;;;;;9.75;4.75;;;;;5.10;48.70;100118.88;5059525;28;47126;-83
2023/12/04 01:55:33;;;;;;;;;9.00;8.75;;;;;5.12;48.70;100122.28;5077987;28;45405;-83
2023/12/04 01:58:01;;;;;;;;;9.25;7.75;;;;;5.09;48.81;100096.06;5078044;28;45319;-81
2023/12/04 02:00:26;;;;;;;;;10.00;8.75;;;;;5.09;48.00;100096.06;5077219;28;45318;-85
2023/12/04 02:02:52;;;;;;;;;13.00;6.50;;;;;4.98;48.44;100075.44;5077528;27;46327;-84
2023/12/04 02:05:19;;;;;;;;;9.50;7.25;;;;;4.89;48.12;100056.50;5077150;27;45362;-84
2023/12/04 02:07:44;;;;;;;;;9.00;9.00;;;;;5.00;49.32;100110.47;5078515;28;45494;-85
2023/12/04 02:10:10;;;;;;;;;8.00;6.75;;;;;5.00;49.02;100106.97;5077284;28;45543;-84
2023/12/04 02:12:35;;;;;;;;;9.50;8.50;;;;;4.97;48.75;100107.13;5076951;28;45430;-85
2023/12/04 02:15:01;;;;;;;;;13.50;8.00;;;;;4.97;48.58;100123.78;5076714;28;45525;-86
2023/12/04 02:17:28;;;;;;;;;6.50;5.50;;;;;4.92;48.79;100109.91;5077823;28;45283;-83
2023/12/04 02:19:54;;;;;;;;;9.50;7.75;;;;;4.92;48.79;100099.38;5078611;28;45228;-85
2023/12/04 02:22:20;;;;;;;;;6.00;5.50;;;;;4.90;49.24;100097.72;5079190;28;45980;-85
2023/12/04 02:24:48;;;;;;;;;11.50;9.50;;;;;4.84;49.19;100079.56;5077120;28;45347;-82
2023/12/04 02:27:25;;;;;;;;;8.00;8.00;;;;;4.89;49.82;100072.31;5076943;27;45543;-82
2023/12/04 02:29:59;;;;;;;;;12.50;8.75;;;;;4.94;49.32;100080.88;5074711;28;45370;-84
2023/12/04 02:32:28;;;;;;;;;8.50;5.75;;;;;4.93;49.52;100084.41;5076984;28;45549;-85
2023/12/04 02:34:54;;;;;;;;;8.25;8.25;;;;;5.00;49.84;100080.63;5076760;28;45342;-81
2023/12/04 02:37:22;;;;;;;;;12.25;9.00;;;;;4.99;49.55;100085.03;5077107;28;45327;-83
2023/12/04 02:39:49;;;;;;;;;10.50;8.50;;;;;5.08;50.25;100101.38;5077081;28;45242;-85
2023/12/04 02:42:16;;;;;;;;;7.00;6.00;;;;;5.11;49.84;100091.59;5077132;28;46017;-81
2023/12/04 02:44:42;;;;;;;;;6.00;6.00;;;;;5.07;50.34;100089.13;5077310;28;45468;-83
2023/12/04 02:47:07;;;;;;;;;9.00;5.50;;;;;5.08;50.46;100082.94;5079029;28;45329;-85
2023/12/04 02:49:33;;;;;;;;;9.75;6.75;;;;;5.12;49.87;100088.03;5062744;28;45523;-85
2023/12/04 02:51:58;;;;;;;;;9.75;8.50;;;;;5.15;49.56;100082.63;5077411;28;46194;-82
2023/12/04 02:54:23;;;;;;;;;11.25;8.75;;;;;5.15;49.75;100074.72;5076217;27;56729;-81
2023/12/04 02:56:50;;;;;;;;;12.75;9.25;;;;;5.21;50.42;100068.34;5076472;28;45408;-85
2023/12/04 02:59:15;;;;;;;;;14.00;9.25;;;;;5.14;50.07;100061.59;5077217;27;45535;-83
2023/12/04 03:01:40;;;;;;;;;11.25;8.50;;;;;5.18;49.68;100056.13;5076227;28;48884;-86
2023/12/04 03:04:06;;;;;;;;;6.50;6.50;;;;;5.22;50.17;100049.81;5074903;27;45418;-86
2023/12/04 03:06:31;;;;;;;;;6.25;6.25;;;;;5.23;50.24;100053.31;5077367;28;45339;-86
2023/12/04 03:08:59;;;;;;;;;9.00;8.00;;;;;5.26;50.30;100040.84;5077037;28;45210;-83
2023/12/04 03:11:24;;;;;;;;;11.25;7.75;;;;;5.26;49.89;100034.72;5076206;28;46015;-85
2023/12/04 03:13:49;;;;;;;;;12.75;10.50;;;;;5.26;50.50;100032.94;5076297;28;45476;-84
2023/12/04 03:16:18;;;;;;;;;6.75;6.75;;;;;5.18;50.12;100005.19;5076614;28;45330;-85
2023/12/04 03:18:44;;;;;;;;;6.00;6.00;;;;;5.27;49.85;99999.53;5077039;28;45854;-86
2023/12/04 03:21:10;;;;;;;;;9.00;9.00;;;;;5.32;49.50;100016.84;5077121;28;46177;-84
2023/12/04 03:23:35;;;;;;;;;11.75;9.00;;;;;5.33;50.24;100017.69;5079512;27;45491;-84
2023/12/04 03:26:01;;;;;;;;;10.00;6.00;;;;;5.30;49.93;100015.19;5080039;27;45365;-84
2023/12/04 03:28:26;;;;;;;;;7.00;7.00;;;;;5.29;50.14;100003.78;5072401;28;45426;-83
2023/12/04 03:30:51;;;;;;;;;7.50;6.50;;;;;5.31;50.33;100001.94;5070991;28;45591;-82
2023/12/04 03:33:17;;;;;;;;;6.50;6.50;;;;;5.28;51.06;99998.59;5070881;28;52785;-84
2023/12/04 03:35:42;;;;;;;;;8.50;6.50;;;;;5.30;51.25;100008.16;5072310;28;45493;-85
2023/12/04 03:38:07;;;;;;;;;8.25;6.00;;;;;5.33;51.36;100005.38;5071511;28;55642;-82
2023/12/04 03:40:32;;;;;;;;;13.50;9.00;;;;;5.38;50.96;100005.19;5071340;28;47969;-84
2023/12/04 03:42:58;;;;;;;;;8.75;6.00;;;;;5.40;50.67;99994.56;5072139;28;45906;-84
2023/12/04 03:45:23;;;;;;;;;10.25;7.25;;;;;5.33;51.17;99981.63;5062233;28;45527;-84
2023/12/04 03:47:49;;;;;;;;;8.50;6.75;;;;;5.39;51.75;99987.59;5071056;28;45961;-84
2023/12/04 03:50:15;;;;;;;;;11.25;9.75;;;;;5.36;50.70;99970.13;5070711;28;46569;-85
2023/12/04 03:52:41;;;;;;;;;7.25;6.75;;;;;5.43;51.60;99989.16;5071473;28;45551;-85
2023/12/04 03:55:07;;;;;;;;;7.25;6.00;;;;;5.40;51.92;99968.19;5071184;28;46228;-83
2023/12/04 03:57:32;;;;;;;;;7.50;7.50;;;;;5.46;52.99;99981.94;5071589;27;45583;-83
2023/12/04 03:59:57;;;;;;;;;11.00;9.00;;;;;5.50;53.13;99985.31;5070437;28;66046;-84
2023/12/04 04:02:23;;;;;;;;;14.25;9.00;;;;;5.45;54.93;99982.03;5071793;28;45497;-85
2023/12/04 04:04:48;;;;;;;;;9.75;9.25;;;;;5.31;54.64;99949.22;5070738;28;56905;-82
2023/12/04 04:07:16;;;;;;;;;7.25;5.75;;;;;5.45;53.88;99974.09;5071142;28;46750;-84
2023/12/04 04:09:41;;;;;;;;;4.50;2.50;;;;;5.39;54.73;99969.97;5070551;28;45508;-86
2023/12/04 04:12:06;;;;;;;;;9.00;7.25;;;;;5.36;54.46;99972.75;5072058;28;46750;-82
2023/12/04 04:14:32;;;;;;;;;6.50;6.50;;;;;5.32;55.50;99985.19;5072412;28;46145;-85
2023/12/04 04:16:57;;;;;;;;;10.00;5.75;;;;;5.32;55.54;99981.72;5070829;28;45500;-82
2023/12/04 04:19:22;;;;;;;;;6.00;6.00;;;;;5.27;55.94;99971.38;5071582;28;46212;-83
2023/12/04 04:21:48;;;;;;;;;6.50;6.50;;;;;5.28;56.50;99975.72;5071242;28;45467;-84
2023/12/04 04:24:13;;;;;;;;;11.25;9.75;;;;;5.30;57.31;99968.59;5071945;28;45643;-83
2023/12/04 04:26:38;;;;;;;;;5.50;5.25;;;;;5.28;57.85;99970.44;5070621;28;45852;-84
2023/12/04 04:29:04;;;;;;;;;7.00;7.00;;;;;5.28;57.63;99953.78;5069864;28;60900;-86
2023/12/04 04:31:29;;;;;;;;;10.00;7.50;;;;;5.22;58.23;99948.78;5070882;28;46668;-84
2023/12/04 04:33:54;;;;;;;;;7.25;7.25;;;;;5.23;59.02;99937.31;5069310;28;57805;-83
2023/12/04 04:36:19;;;;;;;;;8.75;6.50;;;;;5.21;59.57;99931.25;5070140;28;52002;-81
2023/12/04 04:38:45;;;;;;;;;6.75;6.75;;;;;5.17;58.69;99924.41;5070242;28;64258;-83
2023/12/04 04:41:15;;;;;;;;;6.25;5.50;;;;;5.19;59.39;99918.13;5070780;28;45428;-84
2023/12/04 04:43:40;;;;;;;;;8.50;8.00;;;;;5.12;61.05;99905.31;5071863;28;45500;-85
2023/12/04 04:46:05;;;;;;;;;6.00;6.00;;;;;5.00;61.51;99886.47;5070634;28;45988;-83
2023/12/04 04:48:31;;;;;;;;;4.50;4.50;;;;;5.01;62.56;99895.22;5070032;28;46100;-84
2023/12/04 04:50:56;;;;;;;;;10.75;6.75;;;;;4.94;63.29;99896.41;5071178;27;45957;-85
2023/12/04 04:53:22;;;;;;;;;10.00;7.00;;;;;4.86;63.86;99870.44;5071172;28;57914;-85
2023/12/04 04:55:47;;;;;;;;;8.50;8.25;;;;;4.86;64.54;99880.97;5070973;27;47043;-83
2023/12/04 04:58:12;;;;;;;;;6.75;5.25;;;;;4.79;64.71;99876.88;5069930;28;46025;-86
2023/12/04 05:00:38;;;;;;;;;8.00;8.00;;;;;4.80;65.76;99872.47;5070388;27;46188;-84
2023/12/04 05:03:03;;;;;;;;;6.00;5.00;;;;;4.72;67.02;99868.41;5059813;28;52867;-84
2023/12/04 05:05:28;;;;;;;;;9.00;7.50;;;;;4.71;67.16;99860.56;5060475;28;45481;-82
2023/12/04 05:07:54;;;;;;;;;8.00;5.75;;;;;4.63;67.67;99847.72;5070105;28;52274;-83
2023/12/04 05:10:19;;;;;;;;;7.25;7.25;;;;;4.65;68.43;99860.81;5069796;28;45702;-82
2023/12/04 05:12:44;;;;;;;;;5.00;5.00;;;;;4.61;67.68;99852.19;5070995;28;45689;-84
2023/12/04 05:15:09;;;;;;;;;6.00;3.00;;;;;4.65;67.50;99845.00;5069777;28;49498;-83
2023/12/04 05:17:35;;;;;;;;;8.50;6.00;;;;;4.57;69.06;99840.09;5070372;28;71260;-83
2023/12/04 05:20:00;;;;;;;;;8.00;5.75;;;;;4.58;69.59;99838.31;5077976;28;45369;-83
2023/12/04 05:22:25;;;;;;;;;5.00;5.00;;;;;4.53;70.94;99840.28;5061778;28;50986;-82
2023/12/04 05:24:51;;;;;;;;;7.50;6.25;;;;;4.54;70.52;99832.31;5069817;28;45789;-84
2023/12/04 05:27:16;;;;;;;;;8.50;7.00;;;;;4.46;73.69;99816.00;5070050;28;57897;-84
2023/12/04 05:29:41;;;;;;;;;7.75;7.00;;;;;4.47;71.88;99819.50;5068774;28;57639;-82
2023/12/04 05:32:07;;;;;;;;;6.50;6.50;;;;;4.46;72.05;99813.38;5077843;28;48067;-82
2023/12/04 05:34:32;;;;;;;;;6.75;6.75;;;;;4.42;72.48;99809.13;5078306;28;45568;-84
2023/12/04 05:36:57;;;;;;;;;4.00;4.00;;;;;4.39;73.25;99793.47;5075160;28;66899;-85
2023/12/04 05:39:23;;;;;;;;;12.00;8.00;;;;;4.22;73.57;99772.31;5077825;27;45388;-86
2023/12/04 05:41:48;;;;;;;;;6.00;6.00;;;;;4.30;73.96;99778.09;5072557;28;45729;-86
2023/12/04 05:44:14;;;;;;;;;11.00;6.00;;;;;4.31;73.25;99772.78;5071140;28;45471;-85
2023/12/04 05:46:39;;;;;;;;;8.25;6.00;;;;;4.33;73.36;99775.34;5069562;28;46061;-79
2023/12/04 05:49:04;;;;;;;;;7.00;5.75;;;;;4.27;74.36;99757.16;5068931;28;46340;-86
2023/12/04 05:51:30;;;;;;;;;5.75;5.75;;;;;4.27;74.55;99755.38;5069644;27;50022;-84
2023/12/04 05:53:55;;;;;;;;;8.50;5.00;;;;;4.35;74.71;99758.56;5068369;28;47135;-81
2023/12/04 05:56:21;;;;;;;;;4.75;4.75;;;;;4.26;79.09;99747.56;5071324;28;45973;-81
2023/12/04 05:58:46;;;;;;;;;8.00;8.00;;;;;4.27;74.83;99751.91;5069369;28;45720;-84
2023/12/04 06:01:12;;;;;;;;;9.00;6.50;;;;;4.21;75.72;99736.38;5070564;28;45578;-85
2023/12/04 06:03:37;;;;;;;;;8.50;8.25;;;;;4.20;75.34;99739.94;5071561;28;45581;-86
2023/12/04 06:06:03;;;;;;;;;6.00;6.00;;;;;4.08;75.60;99715.00;5072134;28;46304;-85
2023/12/04 06:08:29;;;;;;;;;4.00;4.00;;;;;4.15;75.84;99719.06;5069444;28;45515;-85
2023/12/04 06:10:57;;;;;;;;;9.25;7.50;;;;;4.12;76.14;99706.06;5071564;28;45508;-85
2023/12/04 06:13:25;;;;;;;;;8.50;8.00;;;;;4.01;76.00;99677.56;5060720;28;45672;-85
2023/12/04 06:15:50;;;;;;;;;10.25;5.50;;;;;4.00;76.06;99673.25;5069151;28;45535;-86
2023/12/04 06:18:16;;;;;;;;;5.00;4.50;;;;;4.20;76.09;99698.69;5068868;28;45592;-87
2023/12/04 06:20:41;;;;;;;;;10.00;5.00;;;;;3.88;76.14;99636.09;5069587;27;45510;-85
2023/12/04 06:23:07;;;;;;;;;6.75;5.25;;;;;3.87;76.90;99635.25;5069206;28;45507;-85
2023/12/04 06:25:34;;;;;;;;;9.75;8.25;;;;;3.79;77.76;99625.06;5066651;28;45636;-86
2023/12/04 06:28:02;;;;;;;;;3.50;3.50;;;;;4.04;78.27;99661.69;5070181;27;45485;-85
2023/12/04 06:30:28;;;;;;;;;6.50;5.00;;;;;3.74;80.36;99631.44;5070694;28;45585;-89
2023/12/04 06:32:54;;;;;;;;;2.00;2.00;;;;;3.79;79.81;99635.59;5062165;28;45529;-87
2023/12/04 06:35:19;;;;;;;;;4.00;4.00;;;;;3.74;80.37;99634.06;5075074;28;45442;-87
2023/12/04 06:37:45;;;;;;;;;7.00;5.00;;;;;3.69;80.23;99615.03;5077821;28;45464;-89
2023/12/04 06:40:12;;;;;;;;;4.50;3.50;;;;;3.97;80.43;99669.91;5081732;28;45441;-85
2023/12/04 06:42:38;;;;;;;;;6.75;5.00;;;;;4.01;82.18;99667.06;5064929;28;45434;-89
2023/12/04 06:45:05;;;;;;;;;5.25;5.25;;;;;4.04;82.14;99666.94;5079639;27;47044;-87
2023/12/04 06:47:34;;;;;;;;;10.75;6.75;;;;;4.06;83.10;99664.25;5074555;28;46886;-86
2023/12/04 06:50:00;;;;;;;;;4.75;2.50;;;;;3.96;83.35;99648.00;5061653;28;45543;-87
2023/12/04 06:52:25;;;;;;;;;8.00;6.50;;;;;4.03;84.51;99654.69;5068142;28;49091;-92
2023/12/04 06:54:50;;;;;;;;;8.25;8.25;;;;;4.01;85.55;99655.69;5077508;27;45476;-86
2023/12/04 06:57:16;;;;;;;;;5.25;4.25;;;;;3.97;85.47;99657.59;5083499;27;45420;-89
2023/12/04 06:59:42;;;;;;;;;3.00;3.00;;;;;3.98;85.40;99640.03;5063297;28;45723;-89
2023/12/04 07:02:07;;;;;;;;;5.75;5.75;;;;;3.99;85.43;99636.47;5066390;28;45591;-88
2023/12/04 07:04:32;;;;;;;;;5.00;4.50;;;;;3.93;86.32;99621.84;5083199;28;46120;-89
2023/12/04 07:07:00;;;;;;;;;10.00;5.25;;;;;4.00;86.26;99633.78;5084145;27;45322;-86
2023/12/04 07:09:27;;;;;;;;;5.50;5.50;;;;;3.94;86.94;99634.06;5081692;28;45456;-86
2023/12/04 07:11:52;;;;;;;;;11.00;6.00;;;;;3.93;86.98;99619.22;5081253;27;45302;-85
2023/12/04 07:14:18;;;;;;;;;5.75;5.75;;;;;3.98;86.56;99625.09;5081796;27;45478;-84
2023/12/04 07:16:43;;;;;;;;;6.00;6.00;;;;;4.02;86.82;99620.56;5082122;27;45425;-87
2023/12/04 07:19:09;;;;;;;;;6.00;6.00;;;;;4.10;87.13;99615.81;5087200;27;45905;-88
2023/12/04 07:21:36;;;;;;;;;8.00;8.00;;;;;4.11;87.11;99615.75;5084027;27;45352;-87
2023/12/04 07:24:01;;;;;;;;;6.00;6.00;;;;;4.11;87.67;99615.75;5085162;28;47208;-89
2023/12/04 07:26:26;;;;;;;;;8.75;6.00;;;;;4.11;87.33;99599.09;5084506;28;45270;-88
2023/12/04 07:28:52;;;;;;;;;4.00;4.00;;;;;4.14;87.24;99612.97;5085637;28;52121;-91
2023/12/04 07:31:17;;;;;;;;;6.00;6.00;;;;;4.18;87.48;99597.06;5087786;27;45141;-90
2023/12/04 07:33:43;;;;;;;;;7.50;7.50;;;;;4.26;87.65;99615.97;5087972;28;45329;-89
2023/12/04 07:36:08;;;;;;;;;4.75;4.75;;;;;4.31;86.97;99611.38;5091726;28;45262;-89
2023/12/04 07:38:34;;;;;;;;;6.50;6.50;;;;;4.27;87.01;99601.88;5086695;27;45197;-84
2023/12/04 07:40:59;;;;;;;;;8.75;5.00;;;;;4.31;86.68;99611.38;5082291;27;45443;-84
2023/12/04 07:43:24;;;;;;;;;6.50;5.00;;;;;4.29;87.23;99602.66;5062938;28;45725;-82
2023/12/04 07:45:50;;;;;;;;;5.25;5.25;;;;;4.24;87.64;99605.50;5079590;28;69777;-84
2023/12/04 07:48:16;;;;;;;;;5.00;5.00;;;;;4.28;87.86;99608.84;5081982;27;46872;-86
2023/12/04 07:50:42;;;;;;;;;4.00;4.00;;;;;4.32;87.53;99615.69;5080485;28;45342;-87
2023/12/04 07:53:09;;;;;;;;;6.00;6.00;;;;;4.31;87.82;99590.31;5079843;28;45973;-83
2023/12/04 07:55:35;;;;;;;;;8.00;8.00;;;;;4.32;88.05;99607.81;5080334;27;45216;-85
2023/12/04 07:58:00;;;;;;;;;6.00;6.00;;;;;4.26;87.96;99579.97;5082726;28;45419;-80
2023/12/04 08:00:26;;;;;;;;;6.50;5.00;;;;;4.29;88.68;99581.59;5082976;28;45574;-86
2023/12/04 08:02:51;;;;;;;;;3.00;3.00;;;;;4.25;89.30;99580.91;5082030;27;45244;-87
2023/12/04 08:05:17;;;;;;;;;4.75;4.75;;;;;4.32;89.05;99586.75;5085293;27;45295;-86
2023/12/04 08:07:42;;;;;;;;;8.50;6.00;;;;;4.22;89.01;99557.38;5084451;28;45246;-82
2023/12/04 08:10:08;;;;;;;;;4.50;4.50;;;;;4.39;88.67;99580.25;5083449;28;45199;-80
2023/12/04 08:12:34;;;;;;;;;8.50;5.00;;;;;4.35;89.06;99565.53;5080228;28;46180;-83
2023/12/04 08:14:59;;;;;;;;;4.75;4.75;;;;;4.43;89.13;99558.16;5081171;27;45237;-82
2023/12/04 08:17:24;;;;;;;;;4.75;4.75;;;;;4.37;89.32;99542.63;5080293;28;45145;-82
2023/12/04 08:19:50;;;;;;;;;6.00;6.00;;;;;4.43;89.25;99540.56;5065071;28;45639;-83
2023/12/04 08:22:15;;;;;;;;;5.00;5.00;;;;;4.54;88.75;99555.84;5085761;27;45427;-86
2023/12/04 08:24:43;;;;;;;;;8.00;8.00;;;;;4.60;88.95;99560.81;5064412;28;52393;-86
2023/12/04 08:27:09;;;;;;;;;9.00;6.00;;;;;4.58;88.95;99544.25;5079999;27;45470;-88
2023/12/04 08:29:34;;;;;;;;;5.50;5.50;;;;;4.61;89.02;99546.72;5080311;27;45424;-88
2023/12/04 08:32:00;;;;;;;;;5.00;4.00;;;;;4.63;88.86;99547.50;5062614;28;47392;-82
2023/12/04 08:34:25;;;;;;;;;8.00;4.25;;;;;4.50;89.13;99525.31;5079915;27;45311;-84
2023/12/04 08:36:51;;;;;;;;;4.25;4.25;;;;;4.70;89.84;99540.16;5064460;28;45375;-90
2023/12/04 08:39:16;;;;;;;;;5.00;5.00;;;;;4.72;89.99;99554.97;5080808;28;45367;-84
2023/12/04 08:41:45;;;;;;;;;8.00;6.00;;;;;4.62;90.76;99535.25;5060411;28;46417;-84
2023/12/04 08:44:11;;;;;;;;;6.00;4.75;;;;;4.72;90.06;99548.84;5080372;28;45477;-88
2023/12/04 08:46:36;;;;;;;;;5.00;5.00;;;;;4.73;90.33;99546.13;5068841;27;45366;-82
2023/12/04 08:49:02;;;;;;;;;8.75;5.00;;;;;4.72;90.45;99538.31;5087272;27;45738;-86
2023/12/04 08:51:27;;;;;;;;;6.00;6.00;;;;;4.72;90.56;99522.50;5082789;28;46294;-89
2023/12/04 08:53:52;;;;;;;;;3.50;2.00;;;;;4.76;90.58;99521.41;5081210;28;53173;-82
2023/12/04 08:56:18;;;;;;;;;4.75;4.50;;;;;4.77;90.09;99514.38;5080295;28;45228;-81
2023/12/04 08:58:44;;;;;;;;;8.00;6.00;;;;;4.77;90.46;99512.59;5086182;28;45840;-86
2023/12/04 09:01:10;;;;;;;;;9.00;6.75;;;;;4.83;90.42;99514.94;5063363;27;47665;-82
2023/12/04 09:03:36;;;;;;;;;5.50;5.50;;;;;4.91;89.65;99512.75;5080139;28;45257;-83
2023/12/04 09:06:01;;;;;;;;;4.75;4.75;;;;;4.91;90.12;99510.13;5079113;28;45279;-84
2023/12/04 09:08:27;;;;;;;;;6.00;4.00;;;;;4.98;89.41;99510.66;5079025;28;45566;-81
2023/12/04 09:10:52;;;;;;;;;5.00;5.00;;;;;4.98;89.30;99498.34;5078414;28;46008;-86
2023/12/04 09:13:17;;;;;;;;;5.00;5.00;;;;;5.00;88.56;99491.22;5079272;28;45201;-80
2023/12/04 09:15:43;;;;;;;;;7.25;6.00;;;;;5.07;88.61;99497.00;5078786;28;45647;-84
2023/12/04 09:18:08;;;;;;;;;3.50;3.50;;;;;5.03;88.93;99480.50;5078852;27;45596;-88
2023/12/04 09:20:34;;;;;;;;;6.75;4.50;;;;;5.19;88.86;99496.38;5078010;27;46428;-87
2023/12/04 09:22:59;;;;;;;;;6.00;5.25;;;;;5.22;88.36;99501.53;5079603;28;45312;-89
2023/12/04 09:25:25;;;;;;;;;9.25;9.25;;;;;5.24;88.20;99497.03;5079978;27;45414;-83
2023/12/04 09:27:50;;;;;;;;;5.00;5.00;;;;;5.26;88.01;99496.94;5080101;28;45517;-88
2023/12/04 09:30:15;;;;;;;;;9.00;5.00;;;;;5.19;95.38;99475.28;5085127;27;45282;-81
2023/12/04 09:32:41;;;;;;;;;7.25;4.00;;;;;5.27;90.06;99472.28;5079337;27;45461;-90
2023/12/04 09:35:06;;;;;;;;;5.25;3.25;;;;;5.36;88.70;99474.44;5081064;28;45421;-86
2023/12/04 09:37:32;;;;;;;;;4.25;4.25;;;;;5.37;88.74;99467.38;5081792;27;45315;-87
2023/12/04 09:39:57;;;;;;;;;8.50;5.00;;;;;5.42;89.14;99465.34;5081510;27;45372;-81
2023/12/04 09:42:23;;;;;;;;;6.25;5.00;;;;;5.45;89.10;99455.47;5063279;28;45464;-84
2023/12/04 09:44:51;;;;;;;;;12.00;5.50;;;;;5.33;88.39;99440.31;5080345;27;45451;-85
2023/12/04 09:47:18;;;;;;;;;7.25;5.00;;;;;5.48;89.13;99457.13;5080612;28;45359;-90
2023/12/04 09:49:45;;;;;;;;;6.00;4.75;;;;;5.40;88.84;99443.50;5083613;27;45072;-82
2023/12/04 09:52:11;;;;;;;;;4.00;4.00;;;;;5.46;88.94;99454.53;5089989;28;44850;-88
2023/12/04 09:54:37;;;;;;;;;6.00;4.75;;;;;5.42;88.56;99426.66;5090565;27;45360;-84
2023/12/04 09:57:04;;;;;;;;;4.75;4.75;;;;;5.57;89.12;99449.56;5083796;28;45314;-88
2023/12/04 09:59:30;;;;;;;;;6.75;4.00;;;;;5.62;88.69;99436.13;5078142;27;46074;-82
2023/12/04 10:01:57;;;;;;;;;4.00;4.00;;;;;5.65;89.00;99419.28;5080742;27;45208;-80
2023/12/04 10:04:23;;;;;;;;;3.25;3.25;;;;;5.63;88.17;99401.75;5078421;28;45390;-81
2023/12/04 10:06:51;;;;;;;;;3.25;3.25;;;;;5.70;88.60;99407.53;5077504;28;45215;-82
2023/12/04 10:09:18;;;;;;;;;5.00;5.00;;;;;5.70;88.99;99412.81;5077385;28;45412;-81
2023/12/04 10:11:45;;;;;;;;;5.75;3.00;;;;;5.73;89.49;99402.13;5077198;28;45685;-83
2023/12/04 10:14:18;;;;;;;;;3.25;3.25;;;;;5.72;88.98;99391.63;5081397;28;45280;-85
2023/12/04 10:16:44;;;;;;;;;6.25;5.50;;;;;5.81;89.29;99389.34;5080489;28;45429;-81
2023/12/04 10:19:16;;;;;;;;;7.25;5.50;;;;;5.83;89.75;99402.44;5079961;28;45291;-83
2023/12/04 10:21:42;;;;;;;;;4.50;2.75;;;;;5.85;90.42;99380.31;5081381;27;45469;-81
2023/12/04 10:24:08;;;;;;;;;7.00;5.75;;;;;5.88;89.96;99369.59;5081302;27;45348;-85
2023/12/04 10:26:33;;;;;;;;;4.00;4.00;;;;;6.00;90.47;99377.78;5082509;27;45545;-86
2023/12/04 10:29:00;;;;;;;;;5.25;5.00;;;;;6.10;90.11;99386.88;5081732;28;45398;-84
2023/12/04 10:31:26;;;;;;;;;6.75;5.00;;;;;6.14;89.72;99375.22;5060769;28;44694;-90
2023/12/04 10:33:51;;;;;;;;;6.00;6.00;;;;;6.25;88.60;99362.25;5084511;27;45353;-84
2023/12/04 10:36:18;;;;;;;;;5.25;4.50;;;;;6.34;88.77;99366.97;5083713;28;45146;-88
2023/12/04 10:38:43;;;;;;;;;10.00;5.75;;;;;6.44;87.88;99365.50;5080082;28;46105;-87
2023/12/04 10:41:13;;;;;;;;;5.75;5.75;;;;;6.50;88.69;99367.78;5080887;28;56628;-84
2023/12/04 10:43:47;;;;;;;;;6.25;5.25;;;;;6.54;87.64;99342.06;5078997;27;45445;-82
2023/12/04 10:46:16;;;;;;;;;7.00;5.00;;;;;6.63;87.08;99359.13;5080129;28;45315;-81
2023/12/04 10:48:44;;;;;;;;;8.00;6.25;;;;;6.71;87.38;99333.97;5062392;28;47500;-88
2023/12/04 10:51:12;;;;;;;;;7.00;3.00;;;;;6.86;86.04;99326.91;5083623;28;45833;-88
2023/12/04 10:53:40;;;;;;;;;3.00;3.00;;;;;6.97;85.93;99319.16;5079621;28;45423;-87
2023/12/04 10:56:09;;;;;;;;;6.25;6.00;;;;;7.02;85.57;99316.22;5077982;27;45227;-88
2023/12/04 10:58:38;;;;;;;;;3.50;3.00;;;;;6.99;85.47;99305.84;5062546;28;46300;-88
2023/12/04 11:01:08;;;;;;;;;7.00;6.00;;;;;7.02;86.04;99301.22;5060795;28;45334;-86
2023/12/04 11:03:43;;;;;;;;;7.00;5.00;;;;;7.23;85.50;99298.19;5079180;28;45319;-81
2023/12/04 11:06:11;;;;;;;;;5.00;5.00;;;;;7.45;84.72;99303.00;5079943;28;45429;-87
2023/12/04 11:08:38;;;;;;;;;5.25;5.25;;;;;7.68;83.80;99289.97;5078545;28;45390;-83
2023/12/04 11:11:09;;;;;;;;;6.50;2.75;;;;;7.98;83.33;99283.63;5079424;27;45317;-86
2023/12/04 11:13:40;;;;;;;;;7.75;7.75;;;;;8.29;81.80;99261.22;5078804;28;45287;-84
2023/12/04 11:16:38;;;;;;;;;15.00;6.75;;;;;8.47;80.89;99253.88;5078830;28;45272;-83
2023/12/04 11:19:26;;;;;;;;;11.25;6.00;;;;;8.52;79.48;99235.84;5069242;28;45380;-84
2023/12/04 11:21:53;;;;;;;;;5.50;5.50;;;;;8.42;79.57;99232.97;5066653;28;45376;-85
2023/12/04 11:24:21;;;;;;;;;5.25;5.25;;;;;8.49;79.34;99233.41;5059374;28;45505;-86
2023/12/04 11:26:47;;;;;;;;;5.00;5.00;;;;;8.37;79.26;99228.97;5078352;28;45238;-84
2023/12/04 11:29:14;;;;;;;;;8.75;7.00;;;;;8.35;79.38;99217.63;5079978;28;45947;-84
2023/12/04 11:31:39;;;;;;;;;7.00;6.00;;;;;8.41;79.74;99196.84;5081055;28;45285;-85